createdAt,value
2022-12-15T00:00:34.010Z,-3.62
2022-12-15T00:03:26.266Z,-3.66
2022-12-15T00:06:12.736Z,-3.55
2022-12-15T00:08:59.129Z,-3.58
2022-12-15T00:11:44.714Z,-3.58
2022-12-15T00:14:30.499Z,-3.47
2022-12-15T00:17:16.479Z,-3.58
2022-12-15T00:20:03.466Z,-3.56
2022-12-15T00:22:49.351Z,-3.55
2022-12-15T00:25:35.896Z,-3.65
2022-12-15T00:28:22.121Z,-3.71
2022-12-15T00:31:08.167Z,-3.75
2022-12-15T00:33:54.267Z,-3.89
2022-12-15T00:36:41.328Z,-3.79
2022-12-15T00:39:10.866Z,-3.68
2022-12-15T00:41:39.233Z,-3.83
2022-12-15T00:44:09.053Z,-3.92
2022-12-15T00:46:54.911Z,-3.92
2022-12-15T00:49:41.651Z,-3.95
2022-12-15T00:52:30.491Z,-3.92
2022-12-15T00:55:16.429Z,-3.87
2022-12-15T00:58:02.728Z,-3.87
2022-12-15T01:00:49.666Z,-3.87
2022-12-15T01:03:38.864Z,-3.94
2022-12-15T01:06:27.215Z,-3.92
2022-12-15T01:09:15.625Z,-3.95
2022-12-15T01:12:03.158Z,-3.94
2022-12-15T01:14:50.591Z,-3.93
2022-12-15T01:17:37.124Z,-3.93
2022-12-15T01:20:18.406Z,-3.88
2022-12-15T01:22:48.260Z,-3.89
2022-12-15T01:25:20.848Z,-3.93
2022-12-15T01:27:49.252Z,-3.93
2022-12-15T01:30:21.726Z,-4.04
2022-12-15T01:32:50.369Z,-4.03
2022-12-15T01:35:18.936Z,-4.01
2022-12-15T01:37:50.283Z,-3.99
2022-12-15T01:40:39.533Z,-3.96
2022-12-15T01:43:14.903Z,-3.99
2022-12-15T01:46:03.400Z,-3.95
2022-12-15T01:48:48.212Z,-4.00
2022-12-15T01:51:27.079Z,-4.00
2022-12-15T01:54:02.469Z,-3.96
2022-12-15T01:56:38.257Z,-3.93
2022-12-15T01:59:10.470Z,-3.96
2022-12-15T02:01:39.304Z,-4.03
2022-12-15T02:04:12.248Z,-4.13
2022-12-15T02:06:40.714Z,-4.18
2022-12-15T02:09:09.952Z,-4.26
2022-12-15T02:11:56.298Z,-4.14
2022-12-15T02:14:44.744Z,-4.21
2022-12-15T02:17:29.435Z,-4.25
2022-12-15T02:20:41.766Z,-4.26
2022-12-15T02:24:03.918Z,-4.28
2022-12-15T02:27:42.762Z,-4.33
2022-12-15T02:30:23.966Z,-4.26
2022-12-15T02:33:07.953Z,-4.27
2022-12-15T02:35:55.167Z,-4.14
2022-12-15T02:38:32.491Z,-4.17
2022-12-15T02:41:02.483Z,-4.21
2022-12-15T02:43:37.131Z,-4.17
2022-12-15T02:46:19.770Z,-4.20
2022-12-15T02:49:01.403Z,-4.24
2022-12-15T02:51:46.539Z,-4.27
2022-12-15T02:54:53.553Z,-4.30
2022-12-15T02:57:44.033Z,-4.29
2022-12-15T03:00:13.826Z,-4.27
2022-12-15T03:02:48.906Z,-4.31
2022-12-15T03:05:19.484Z,-4.32
2022-12-15T03:07:51.464Z,-4.36
2022-12-15T03:10:21.553Z,-4.31
2022-12-15T03:12:50.671Z,-4.37
2022-12-15T03:15:20.030Z,-4.39
2022-12-15T03:17:49.661Z,-4.41
2022-12-15T03:20:17.962Z,-4.38
2022-12-15T03:22:46.225Z,-4.35
2022-12-15T03:25:14.917Z,-4.40
2022-12-15T03:27:44.316Z,-4.43
2022-12-15T03:30:14.115Z,-4.39
2022-12-15T03:32:42.941Z,-4.33
2022-12-15T03:35:13.515Z,-4.29
2022-12-15T03:37:42.875Z,-4.31
2022-12-15T03:40:13.936Z,-4.33
2022-12-15T03:42:50.816Z,-4.35
2022-12-15T03:45:21.246Z,-4.32
2022-12-15T03:47:50.511Z,-4.22
2022-12-15T03:50:24.279Z,-4.26
2022-12-15T03:52:54.231Z,-4.24
2022-12-15T03:55:23.544Z,-4.27
2022-12-15T03:57:52.756Z,-4.29
2022-12-15T04:00:24.887Z,-4.31
2022-12-15T04:02:54.260Z,-4.30
2022-12-15T04:05:27.717Z,-4.37
2022-12-15T04:07:58.852Z,-4.45
2022-12-15T04:10:34.386Z,-4.42
2022-12-15T04:13:05.835Z,-4.36
2022-12-15T04:15:35.683Z,-4.37
2022-12-15T04:18:06.776Z,-4.33
2022-12-15T04:20:35.742Z,-4.28
2022-12-15T04:23:04.060Z,-4.33
2022-12-15T04:25:50.056Z,-4.32
2022-12-15T04:28:36.303Z,-4.34
2022-12-15T04:31:27.841Z,-4.34
2022-12-15T04:34:17.977Z,-4.29
2022-12-15T04:37:09.928Z,-4.32
2022-12-15T04:39:58.894Z,-4.39
2022-12-15T04:42:45.291Z,-4.30
2022-12-15T04:45:33.051Z,-4.35
2022-12-15T04:48:19.493Z,-4.34
2022-12-15T04:51:05.380Z,-4.32
2022-12-15T04:53:52.401Z,-4.40
2022-12-15T04:56:38.401Z,-4.34
2022-12-15T04:59:24.261Z,-4.33
2022-12-15T05:02:10.561Z,-4.34
2022-12-15T05:04:56.976Z,-4.30
2022-12-15T05:07:44.376Z,-4.33
2022-12-15T05:10:32.517Z,-4.42
2022-12-15T05:13:23.776Z,-4.38
2022-12-15T05:16:09.865Z,-4.37
2022-12-15T05:18:56.398Z,-4.35
2022-12-15T05:21:42.657Z,-4.40
2022-12-15T05:24:28.709Z,-4.34
2022-12-15T05:27:15.869Z,-4.36
2022-12-15T05:30:02.478Z,-4.46
2022-12-15T05:32:33.942Z,-4.40
2022-12-15T05:35:02.562Z,-4.32
2022-12-15T05:37:30.891Z,-4.39
2022-12-15T05:39:59.206Z,-4.39
2022-12-15T05:42:28.933Z,-4.37
2022-12-15T05:44:57.556Z,-4.37
2022-12-15T05:47:26.386Z,-4.37
2022-12-15T05:49:54.973Z,-4.42
2022-12-15T05:52:23.642Z,-4.47
2022-12-15T05:54:51.901Z,-4.53
2022-12-15T05:57:24.350Z,-4.54
2022-12-15T05:59:54.325Z,-4.54
2022-12-15T06:02:23.006Z,-4.59
2022-12-15T06:04:51.753Z,-4.58
2022-12-15T06:07:22.423Z,-4.51
2022-12-15T06:09:51.406Z,-4.46
2022-12-15T06:12:20.039Z,-4.46
2022-12-15T06:14:49.974Z,-4.45
2022-12-15T06:17:19.737Z,-4.39
2022-12-15T06:19:48.103Z,-4.39
2022-12-15T06:22:16.577Z,-4.41
2022-12-15T06:24:45.180Z,-4.40
2022-12-15T06:27:13.794Z,-4.38
2022-12-15T06:29:42.184Z,-4.42
2022-12-15T06:32:10.828Z,-4.43
2022-12-15T06:34:41.398Z,-4.42
2022-12-15T06:37:09.985Z,-4.43
2022-12-15T06:39:38.679Z,-4.47
2022-12-15T06:42:07.398Z,-4.36
2022-12-15T06:44:36.793Z,-4.40
2022-12-15T06:47:05.616Z,-4.35
2022-12-15T06:49:34.374Z,-4.32
2022-12-15T06:52:04.068Z,-4.35
2022-12-15T06:54:32.713Z,-4.38
2022-12-15T06:57:01.050Z,-4.43
2022-12-15T06:59:29.696Z,-4.37
2022-12-15T07:01:58.671Z,-4.34
2022-12-15T07:04:27.719Z,-4.37
2022-12-15T07:06:57.872Z,-4.42
2022-12-15T07:09:28.399Z,-4.39
2022-12-15T07:11:56.677Z,-4.35
2022-12-15T07:14:25.932Z,-4.31
2022-12-15T07:16:54.619Z,-4.36
2022-12-15T07:19:23.182Z,-4.32
2022-12-15T07:21:52.894Z,-4.29
2022-12-15T07:24:21.233Z,-4.26
2022-12-15T07:26:51.173Z,-4.22
2022-12-15T07:29:23.511Z,-4.14
2022-12-15T07:31:53.373Z,-4.16
2022-12-15T07:34:22.664Z,-4.13
2022-12-15T07:36:52.607Z,-4.05
2022-12-15T07:39:21.544Z,-3.96
2022-12-15T07:41:51.249Z,-3.91
2022-12-15T07:44:19.866Z,-4.00
2022-12-15T07:46:49.359Z,-4.02
2022-12-15T07:49:18.086Z,-3.93
2022-12-15T07:51:46.747Z,-3.90
2022-12-15T07:54:16.286Z,-3.89
2022-12-15T07:56:45.029Z,-3.96
2022-12-15T07:59:20.721Z,-3.88
2022-12-15T08:01:49.762Z,-3.79
2022-12-15T08:04:18.856Z,-3.79
2022-12-15T08:06:47.482Z,-3.79
2022-12-15T08:09:16.116Z,-3.74
2022-12-15T08:11:44.408Z,-3.61
2022-12-15T08:14:17.377Z,-3.67
2022-12-15T08:16:48.005Z,-3.66
2022-12-15T08:19:17.960Z,-3.70
2022-12-15T08:21:47.967Z,-3.54
2022-12-15T08:24:17.177Z,-3.46
2022-12-15T08:26:49.975Z,-3.43
2022-12-15T08:32:09.951Z,-3.33
2022-12-15T08:34:39.352Z,-3.26
2022-12-15T08:37:07.941Z,-3.12
2022-12-15T08:39:36.553Z,-3.19
2022-12-15T08:42:05.404Z,-3.09
2022-12-15T08:44:33.990Z,-3.06
2022-12-15T08:47:02.621Z,-2.95
2022-12-15T08:49:32.315Z,-2.98
2022-12-15T08:52:00.901Z,-3.08
2022-12-15T08:54:29.527Z,-2.98
2022-12-15T08:56:57.769Z,-2.76
2022-12-15T08:59:26.311Z,-2.70
2022-12-15T09:01:55.032Z,-2.46
2022-12-15T09:04:24.044Z,-2.34
2022-12-15T09:06:53.859Z,-2.28
2022-12-15T09:09:22.560Z,-2.36
2022-12-15T09:11:51.227Z,-2.19
2022-12-15T09:14:27.087Z,-2.17
2022-12-15T09:16:57.751Z,-2.08
2022-12-15T09:19:26.585Z,-1.81
2022-12-15T09:21:56.284Z,-1.74
2022-12-15T09:24:34.349Z,-1.44
2022-12-15T09:27:04.649Z,-1.27
2022-12-15T09:29:34.060Z,-1.23
2022-12-15T09:32:06.559Z,-1.16
2022-12-15T09:34:38.118Z,-1.16
2022-12-15T09:37:07.822Z,-1.31
2022-12-15T09:39:37.511Z,-1.45
2022-12-15T09:42:06.220Z,-1.34
2022-12-15T09:44:35.205Z,-1.35
2022-12-15T09:47:13.924Z,-1.55
2022-12-15T09:49:56.615Z,-1.37
2022-12-15T09:52:31.250Z,-1.45
2022-12-15T09:55:01.801Z,-1.70
2022-12-15T09:57:45.438Z,-2.04
2022-12-15T10:00:22.453Z,-2.15
2022-12-15T10:03:22.993Z,-1.95
2022-12-15T10:06:20.028Z,-1.79
2022-12-15T10:08:57.157Z,-1.80
2022-12-15T10:11:55.766Z,-1.87
2022-12-15T10:14:34.172Z,-1.61
2022-12-15T10:17:21.390Z,-1.72
2022-12-15T10:20:03.914Z,-1.89
2022-12-15T10:22:37.715Z,-1.82
2022-12-15T10:25:25.341Z,-1.96
2022-12-15T10:28:25.507Z,-2.26
2022-12-15T10:31:01.263Z,-2.23
2022-12-15T10:33:36.393Z,-2.14
2022-12-15T10:36:12.452Z,-2.05
2022-12-15T10:38:46.214Z,-1.95
2022-12-15T10:41:23.593Z,-1.85
2022-12-15T10:46:47.003Z,-1.74
2022-12-15T10:49:26.559Z,-1.68
2022-12-15T10:52:00.184Z,-1.79
2022-12-15T10:54:35.792Z,-1.67
2022-12-15T10:57:21.023Z,-1.76
2022-12-15T10:59:50.375Z,-1.82
2022-12-15T11:02:34.766Z,-1.68
2022-12-15T11:05:06.652Z,-1.83
2022-12-15T11:07:39.771Z,-1.79
2022-12-15T11:10:21.201Z,-1.74
2022-12-15T11:13:10.568Z,-1.74
2022-12-15T11:15:43.265Z,-1.59
2022-12-15T11:18:24.422Z,-1.71
2022-12-15T11:21:01.727Z,-1.65
2022-12-15T11:23:50.278Z,-1.47
2022-12-15T11:26:33.142Z,-1.37
2022-12-15T11:29:11.196Z,-1.36
2022-12-15T11:31:44.443Z,-1.33
2022-12-15T11:34:16.029Z,-1.42
2022-12-15T11:37:02.566Z,-1.54
2022-12-15T11:39:54.768Z,-1.32
2022-12-15T11:42:35.994Z,-1.46
2022-12-15T11:45:19.812Z,-1.63
2022-12-15T11:47:53.434Z,-1.63
2022-12-15T11:50:31.832Z,-1.63
2022-12-15T11:53:19.735Z,-1.70
2022-12-15T11:55:58.849Z,-1.75
2022-12-15T11:58:51.809Z,-1.45
2022-12-15T12:01:57.052Z,-1.29
2022-12-15T12:04:35.512Z,-1.29
2022-12-15T12:07:16.830Z,-1.48
2022-12-15T12:10:04.223Z,-1.43
2022-12-15T12:12:44.912Z,-1.26
2022-12-15T12:15:31.141Z,-1.37
2022-12-15T12:18:12.761Z,-1.51
2022-12-15T12:20:50.333Z,-1.33
2022-12-15T12:23:28.742Z,-1.45
2022-12-15T12:26:07.408Z,-1.23
2022-12-15T12:28:46.670Z,-1.22
2022-12-15T12:31:32.389Z,-1.21
2022-12-15T12:34:13.474Z,-1.15
2022-12-15T12:36:44.965Z,-0.95
2022-12-15T12:39:24.408Z,-1.05
2022-12-15T12:42:06.612Z,-1.36
2022-12-15T12:44:38.620Z,-1.45
2022-12-15T12:47:17.313Z,-1.47
2022-12-15T12:49:51.414Z,-1.51
2022-12-15T12:52:28.499Z,-1.49
2022-12-15T12:55:03.201Z,-1.45
2022-12-15T12:57:41.444Z,-1.43
2022-12-15T13:00:20.654Z,-1.60
2022-12-15T13:03:14.148Z,-1.67
2022-12-15T13:05:46.679Z,-1.67
2022-12-15T13:12:14.861Z,-1.50
2022-12-15T13:14:51.948Z,-1.65
2022-12-15T13:17:33.813Z,-1.69
2022-12-15T13:20:30.973Z,-1.76
2022-12-15T13:23:41.366Z,-1.65
2022-12-15T13:26:20.543Z,-1.53
2022-12-15T13:28:58.818Z,-1.48
2022-12-15T13:31:41.837Z,-1.30
2022-12-15T13:34:39.470Z,-1.40
2022-12-15T13:37:46.718Z,-1.44
2022-12-15T13:40:51.848Z,-1.31
2022-12-15T13:43:43.670Z,-1.42
2022-12-15T13:46:17.909Z,-1.42
2022-12-15T13:48:49.320Z,-1.30
2022-12-15T13:51:39.094Z,-1.25
2022-12-15T13:54:18.007Z,-1.32
2022-12-15T13:56:56.217Z,-1.36
2022-12-15T13:59:38.323Z,-1.36
2022-12-15T14:02:26.511Z,-1.40
2022-12-15T14:05:14.357Z,-1.43
2022-12-15T14:07:54.135Z,-1.38
2022-12-15T14:10:28.551Z,-1.31
2022-12-15T14:13:15.095Z,-1.52
2022-12-15T14:15:47.343Z,-1.53
2022-12-15T14:18:30.350Z,-1.60
2022-12-15T14:20:59.245Z,-1.70
2022-12-15T14:23:30.449Z,-1.63
2022-12-15T14:26:07.353Z,-1.69
2022-12-15T14:28:39.373Z,-1.62
2022-12-15T14:31:15.511Z,-1.69
2022-12-15T14:33:50.689Z,-1.77
2022-12-15T14:36:21.967Z,-1.84
2022-12-15T14:38:55.085Z,-1.80
2022-12-15T14:41:28.557Z,-1.92
2022-12-15T14:44:31.416Z,-1.97
2022-12-15T14:46:52.799Z,-1.96
2022-12-15T14:49:29.585Z,-1.98
2022-12-15T14:52:05.082Z,-2.08
2022-12-15T14:54:37.506Z,-2.08
2022-12-15T14:57:16.734Z,-2.12
2022-12-15T14:59:51.252Z,-2.07
2022-12-15T15:02:24.894Z,-2.03
2022-12-15T15:03:11.640Z,-1.62
2022-12-15T15:03:12.903Z,-1.52
2022-12-15T15:05:03.244Z,-1.99
2022-12-15T15:07:33.463Z,-2.03
2022-12-15T15:10:04.265Z,-2.08
2022-12-15T15:12:45.508Z,-2.10
2022-12-15T15:15:19.792Z,-2.14
2022-12-15T15:17:53.692Z,-2.11
2022-12-15T15:20:28.557Z,-2.11
2022-12-15T15:23:19.463Z,-2.18
2022-12-15T15:25:53.956Z,-2.18
2022-12-15T15:28:26.587Z,-2.16
2022-12-15T15:31:00.553Z,-2.13
2022-12-15T15:33:30.387Z,-2.13
2022-12-15T15:36:01.048Z,-2.15
2022-12-15T15:38:33.600Z,-2.19
2022-12-15T15:41:16.817Z,-2.25
2022-12-15T15:43:45.674Z,-2.31
2022-12-15T15:46:20.309Z,-2.30
2022-12-15T15:48:53.958Z,-2.35
2022-12-15T15:51:24.797Z,-2.31
2022-12-15T15:53:54.689Z,-2.36
2022-12-15T15:56:23.621Z,-2.39
2022-12-15T15:58:51.965Z,-2.38
2022-12-15T16:01:21.880Z,-2.43
2022-12-15T16:03:50.651Z,-2.50
2022-12-15T16:06:24.187Z,-2.56
2022-12-15T16:08:54.818Z,-2.58
2022-12-15T16:11:25.508Z,-2.59
2022-12-15T16:13:53.840Z,-2.60
2022-12-15T16:16:31.346Z,-2.61
2022-12-15T16:19:00.029Z,-2.63
2022-12-15T16:21:29.084Z,-2.64
2022-12-15T16:23:59.789Z,-2.68
2022-12-15T16:26:33.313Z,-2.68
2022-12-15T16:29:01.864Z,-2.71
2022-12-15T16:31:41.358Z,-2.74
2022-12-15T16:34:10.710Z,-2.76
2022-12-15T16:36:39.390Z,-2.79
2022-12-15T16:39:25.383Z,-2.83
2022-12-15T16:41:56.273Z,-2.82
2022-12-15T16:44:26.542Z,-2.78
2022-12-15T16:46:56.992Z,-2.85
2022-12-15T16:49:25.685Z,-2.83
2022-12-15T16:51:54.959Z,-2.84
2022-12-15T16:54:28.532Z,-2.81
2022-12-15T16:57:00.478Z,-2.77
2022-12-15T16:59:33.944Z,-2.78
2022-12-15T17:02:23.943Z,-2.79
2022-12-15T17:04:55.063Z,-2.83
2022-12-15T17:07:25.163Z,-2.88
2022-12-15T17:09:53.941Z,-2.87
2022-12-15T17:12:22.367Z,-2.86
2022-12-15T17:14:50.786Z,-2.86
2022-12-15T17:17:21.252Z,-2.87
2022-12-15T17:20:27.523Z,-2.89
2022-12-15T17:22:39.266Z,-2.90
2022-12-15T17:25:17.336Z,-2.94
2022-12-15T17:27:47.036Z,-2.92
2022-12-15T17:30:17.326Z,-2.96
2022-12-15T17:32:48.308Z,-2.91
2022-12-15T17:35:17.585Z,-2.89
2022-12-15T17:37:46.820Z,-2.93
2022-12-15T17:40:21.976Z,-2.92
2022-12-15T17:42:51.439Z,-2.89
2022-12-15T17:45:24.373Z,-2.98
2022-12-15T17:47:54.683Z,-2.98
2022-12-15T17:50:23.330Z,-2.95
2022-12-15T17:52:51.755Z,-2.97
2022-12-15T17:55:29.049Z,-2.97
2022-12-15T17:58:00.778Z,-2.91
2022-12-15T18:00:32.060Z,-2.90
2022-12-15T18:03:02.345Z,-2.85
2022-12-15T18:05:32.330Z,-2.80
2022-12-15T18:08:15.564Z,-2.80
2022-12-15T18:10:45.723Z,-2.77
2022-12-15T18:13:20.425Z,-2.77
2022-12-15T18:15:49.549Z,-2.70
2022-12-15T18:18:22.222Z,-2.72
2022-12-15T18:20:52.061Z,-2.71
2022-12-15T18:23:26.323Z,-2.68
2022-12-15T18:25:59.672Z,-2.63
2022-12-15T18:28:33.258Z,-2.63
2022-12-15T18:31:21.351Z,-2.57
2022-12-15T18:33:51.171Z,-2.61
2022-12-15T18:36:20.712Z,-2.60
2022-12-15T18:38:49.750Z,-2.62
2022-12-15T18:41:21.117Z,-2.62
2022-12-15T18:43:58.606Z,-2.57
2022-12-15T18:46:28.236Z,-2.54
2022-12-15T18:49:00.288Z,-2.51
2022-12-15T18:51:30.768Z,-2.48
2022-12-15T18:53:59.141Z,-2.46
2022-12-15T18:56:27.733Z,-2.43
2022-12-15T18:58:56.263Z,-2.44
2022-12-15T19:01:25.018Z,-2.41
2022-12-15T19:03:53.972Z,-2.44
2022-12-15T19:06:34.809Z,-2.43
2022-12-15T19:09:03.937Z,-2.41
2022-12-15T19:11:33.089Z,-2.38
2022-12-15T19:14:04.102Z,-2.41
2022-12-15T19:16:52.937Z,-2.40
2022-12-15T19:19:39.287Z,-2.39
2022-12-15T19:22:28.029Z,-2.38
2022-12-15T19:24:57.088Z,-2.38
2022-12-15T19:27:27.466Z,-2.35
2022-12-15T19:29:56.579Z,-2.35
2022-12-15T19:32:26.768Z,-2.31
2022-12-15T19:34:55.553Z,-2.33
2022-12-15T19:37:28.539Z,-2.33
2022-12-15T19:39:58.956Z,-2.34
2022-12-15T19:42:33.392Z,-2.31
2022-12-15T19:45:02.647Z,-2.33
2022-12-15T19:47:31.306Z,-2.30
2022-12-15T19:49:59.730Z,-2.31
2022-12-15T19:52:29.827Z,-2.34
2022-12-15T19:54:58.679Z,-2.32
2022-12-15T19:57:27.558Z,-2.30
2022-12-15T19:59:56.052Z,-2.30
2022-12-15T20:02:24.567Z,-2.31
2022-12-15T20:04:53.050Z,-2.29
2022-12-15T20:07:30.415Z,-2.30
2022-12-15T20:09:59.022Z,-2.24
2022-12-15T20:12:27.589Z,-2.20
2022-12-15T20:14:56.632Z,-2.22
2022-12-15T20:17:25.119Z,-2.27
2022-12-15T20:19:53.524Z,-2.26
2022-12-15T20:22:21.971Z,-2.24
2022-12-15T20:24:51.796Z,-2.24
2022-12-15T20:27:21.200Z,-2.26
2022-12-15T20:29:49.632Z,-2.27
2022-12-15T20:32:21.815Z,-2.25
2022-12-15T20:34:50.517Z,-2.24
2022-12-15T20:37:24.263Z,-2.27
2022-12-15T20:39:57.712Z,-2.19
2022-12-15T20:42:26.940Z,-2.24
2022-12-15T20:44:55.710Z,-2.20
2022-12-15T20:47:27.696Z,-2.19
2022-12-15T20:49:56.762Z,-2.19
2022-12-15T20:52:28.029Z,-2.18
2022-12-15T20:54:58.032Z,-2.13
2022-12-15T20:57:26.800Z,-2.16
2022-12-15T20:59:55.742Z,-2.14
2022-12-15T21:02:25.802Z,-2.19
2022-12-15T21:04:55.208Z,-2.17
2022-12-15T21:07:23.663Z,-2.15
2022-12-15T21:09:52.066Z,-2.13
2022-12-15T21:12:26.439Z,-2.13
2022-12-15T21:14:55.552Z,-2.13
2022-12-15T21:17:27.011Z,-2.18
2022-12-15T21:19:55.621Z,-2.23
2022-12-15T21:22:27.629Z,-2.21
2022-12-15T21:25:00.417Z,-2.13
2022-12-15T21:27:30.179Z,-2.13
2022-12-15T21:29:58.535Z,-2.12
2022-12-15T21:32:26.885Z,-2.14
2022-12-15T21:34:55.572Z,-2.18
2022-12-15T21:37:29.705Z,-2.16
2022-12-15T21:40:00.487Z,-2.19
2022-12-15T21:42:37.501Z,-2.16
2022-12-15T21:45:13.677Z,-2.18
2022-12-15T21:47:59.344Z,-2.16
2022-12-15T21:50:28.160Z,-2.18
2022-12-15T21:52:57.244Z,-2.15
2022-12-15T21:55:28.914Z,-2.23
2022-12-15T21:57:59.289Z,-2.18
2022-12-15T22:00:28.143Z,-2.17
2022-12-15T22:02:57.016Z,-2.22
2022-12-15T22:05:30.271Z,-2.22
2022-12-15T22:08:02.690Z,-2.30
2022-12-15T22:10:31.212Z,-2.40
2022-12-15T22:13:01.075Z,-2.38
2022-12-15T22:15:30.758Z,-2.40
2022-12-15T22:17:59.600Z,-2.46
2022-12-15T22:20:28.004Z,-2.45
2022-12-15T22:22:56.574Z,-2.46
2022-12-15T22:25:26.889Z,-2.41
2022-12-15T22:27:55.588Z,-2.41
2022-12-15T22:30:27.978Z,-2.38
2022-12-15T22:32:56.588Z,-2.39
2022-12-15T22:35:27.659Z,-2.48
2022-12-15T22:37:56.461Z,-2.58
2022-12-15T22:40:26.238Z,-2.60
2022-12-15T22:42:58.858Z,-2.61
2022-12-15T22:45:29.137Z,-2.64
2022-12-15T22:47:57.869Z,-2.66
2022-12-15T22:50:27.955Z,-2.70
2022-12-15T22:52:56.315Z,-2.69
2022-12-15T22:55:25.426Z,-2.74
2022-12-15T22:58:00.784Z,-2.73
2022-12-15T23:00:30.785Z,-2.83
2022-12-15T23:02:59.825Z,-2.86
2022-12-15T23:05:28.367Z,-2.92
2022-12-15T23:07:57.067Z,-2.94
2022-12-15T23:10:43.143Z,-2.97
2022-12-15T23:13:11.504Z,-2.95
2022-12-15T23:15:58.696Z,-2.88
2022-12-15T23:18:27.385Z,-2.95
2022-12-15T23:20:56.507Z,-2.89
2022-12-15T23:23:25.938Z,-2.89
2022-12-15T23:25:54.878Z,-2.84
2022-12-15T23:28:23.437Z,-2.88
2022-12-15T23:30:54.502Z,-2.91
2022-12-15T23:33:24.889Z,-2.94
2022-12-15T23:35:54.991Z,-3.03
2022-12-15T23:38:23.822Z,-2.88
2022-12-15T23:40:54.738Z,-2.90
2022-12-15T23:43:24.981Z,-2.94
2022-12-15T23:46:00.289Z,-2.98
2022-12-15T23:48:32.583Z,-2.97
2022-12-15T23:51:06.883Z,-3.00
2022-12-15T23:53:35.611Z,-2.99
2022-12-15T23:56:11.312Z,-3.03
2022-12-15T23:58:41.367Z,-2.97
